Huvudsida
METAR-TAF:

METAR-TAF

Flygplatser :

Dakar, Senegal

latitud: 14-44N, longitud: 017-30W, höjd: 27 m

Aktuellt väderrapport

Denna rapport gjordes för 1 timme och 34 minuter sedan, klockan 13:00 UTC
Vind 14 kt från nord
Temperatur 26°C
Fuktighet 65%
Tryck 1014 hPa
Sikt 10 km eller mer
Inga moln under 1 500 m eller inga cumulonimbus

METAR: GOOY 161300Z 36014KT CAVOK 26/19 Q1014

Tid: 14:34 (14:34 UTC)

Väderprognos

Denna rapport gjordes för 3 timmar och 4 minuter sedan, klockan 11:30 UTC
Prognos gäller från 16 kl. 12 UTC till 17 kl. 18 UTC
Vind 12 kt från nord/nordost
Sikt 10 km eller mer
Inga moln under 1 500 m eller inga cumulonimbus

TAF: GOOY 161130Z 1612/1718 02012KT CAVOK

Aktuella väderrapporter och prognoser från 4000 flygplatser (METAR- och TAF-rapporter).

De tillgängliga stationerna syns som gula och röda prickar på kartan.

För musen över prickarna för att se namnen på stationerna.

Klicka sedan för att få väderrapporter och prognoser.

För att ändra kartan: Klicka på de gröna knapparna med ett svart kors på för att zooma in; den gröna knappen med ett streck på för att zooma ut; eller på de gröna pilarna för angränsande kartor.


METAR-TAF: